Flugplatz Nordhorn-Lingen

EDWN · Niedersachsen, Alemania

METAR pasados EDWN · Flugplatz Nordhorn-Lingen

A continuación puedes ver los METAR de los últimos días. Selecciona un año para ver los METAR más antiguos, desde el año 2007 en adelante.

2 de diciembre de 2022

Hora Código Tiempo Temp. Visibilidad Cielo nuboso Viento METAR/SPECI
07:20
I
2 °C 5 km 800 ft 050° 050° 5 kt METAR ETWM 020620Z 05005KT 5000 BR BKN008 02/00 Q1025 GRN
06:20
I
2 °C 6 km 800 ft 040° 040° 7 kt METAR ETWM 020520Z 04007KT 6000 BKN008 02/00 Q1025 GRN
05:20
U
2 °C 0 m - 040° 040° 6 kt METAR ETWM 020420Z AUTO 04006KT //// // ////// 02/01 Q1025 ///
04:20
U
2 °C 0 m - 040° 040° 4 kt METAR ETWM 020320Z AUTO 04004KT //// // ////// 02/01 Q1026 ///
03:20
U
2 °C 0 m - 050° 050° 7 kt METAR ETWM 020220Z AUTO 05007KT //// // ////// 02/01 Q1026 ///
02:20
U
2 °C 0 m - 030° 030° 6 kt METAR ETWM 020120Z AUTO 03006KT //// // ////// 02/01 Q1026 ///
01:20
U
2 °C 0 m - 030° 030° 5 kt METAR ETWM 020020Z AUTO 03005KT //// // ////// 02/00 Q1027 ///
00:20
U
3 °C 0 m - 040° 040° 6 kt METAR ETWM 012320Z AUTO 04006KT //// // ////// 03/00 Q1027 ///

1 de diciembre de 2022

Hora Código Tiempo Temp. Visibilidad Cielo nuboso Viento METAR/SPECI
23:20
U
3 °C 0 m - 080° 080° 5 kt METAR ETWM 012220Z AUTO 08005KT //// // ////// 03/01 Q1027 ///
22:20
U
3 °C 0 m - 070° 070° 3 kt METAR ETWM 012120Z AUTO 07003KT //// // ////// 03/02 Q1027 ///
21:20
U
4 °C 0 m - 060° 060° 4 kt METAR ETWM 012020Z AUTO 06004KT //// // ////// 04/02 Q1028 ///
20:20
U
4 °C 0 m - 060° 060° 3 kt METAR ETWM 011920Z AUTO 06003KT //// // ////// 04/02 Q1028 ///
19:20
U
4 °C 0 m - 060° 060° 4 kt METAR ETWM 011820Z AUTO 06004KT //// // ////// 04/02 Q1027 ///
18:20
U
4 °C 0 m - 050° 050° 4 kt METAR ETWM 011720Z AUTO 05004KT //// // ////// 04/02 Q1027 ///
17:20
U
4 °C 0 m - 030° 030° 4 kt METAR ETWM 011620Z AUTO 03004KT //// // ////// 04/03 Q1027 ///
16:20
I
5 °C 4,2 km 1.400 ft 030° 030° 4 kt METAR ETWM 011520Z 03004KT 4200 BR FEW009 BKN014 05/03 Q1027 GRN
16:01
I
5 °C 4,2 km 1.400 ft 030° 030° 3 kt METAR ETWM 011501Z 03003KT 4200 BR SCT007 BKN014 05/03 Q1027 GRN
15:20
I
5 °C 3,8 km 700 ft 030° 030° 4 kt METAR ETWM 011420Z 03004KT 3800 BR BKN007 05/04 Q1027 GRN
14:20
I
5 °C 4 km 800 ft 040° 040° 4 kt METAR ETWM 011320Z 04004KT 4000 BR SCT006 BKN008 05/04 Q1027 GRN
13:20
I
5 °C 3,8 km 900 ft 050° 050° 5 kt METAR ETWM 011220Z 05005KT 3800 BR FEW003 SCT006 BKN009 05/04 Q1027 GRN
12:20
L
5 °C 4,5 km 400 ft 030° 030° 4 kt METAR ETWM 011120Z 03004KT 4500 BR SCT002 BKN004 05/04 Q1028 YLO
11:20
I
5 °C 5 km 500 ft 050° 050° 4 kt METAR ETWM 011020Z 05004KT 5000 BR BKN005 05/04 Q1028 YLO
10:20
I
5 °C 5 km 600 ft 010° 010° 4 kt METAR ETWM 010920Z 01004KT 5000 BR FEW005 BKN006 05/04 Q1028 YLO
09:20
I
5 °C 4,7 km 700 ft 010° 010° 3 kt METAR ETWM 010820Z 01003KT 4700 BR BKN007 BKN029 05/04 Q1028 GRN
08:50
I
5 °C 4,5 km 800 ft 360° 360° 4 kt METAR ETWM 010750Z 36004KT 4500 BR BKN008 BKN027 05/04 Q1028 GRN
08:20
I
5 °C 4,5 km 2.700 ft Var Var 3 kt METAR ETWM 010720Z VRB03KT 4500 BR FEW009 BKN027 05/04 Q1027 GRN
07:20
I
5 °C 4,5 km 2.600 ft 030° 030° 6 kt METAR ETWM 010620Z 03006KT 4500 BR SCT007 BKN026 05/04 Q1027 GRN
06:20
I
5 °C 4,1 km 600 ft 010° 010° 4 kt METAR ETWM 010520Z 01004KT 4100 BR BKN006 05/04 Q1027 YLO
05:20
U
5 °C 0 m - 010° 010° 4 kt METAR ETWM 010420Z AUTO 01004KT //// // ////// 05/04 Q1027 ///
04:20
U
5 °C 0 m - 010° 010° 4 kt METAR ETWM 010320Z AUTO 01004KT //// // ////// 05/04 Q1027 ///
03:20
U
5 °C 0 m - 010° 010° 6 kt METAR ETWM 010220Z AUTO 01006KT //// // ////// 05/04 Q1027 ///
02:20
U
5 °C 0 m - 010° 010° 5 kt METAR ETWM 010120Z AUTO 01005KT //// // ////// 05/04 Q1027 ///
01:20
U
5 °C 0 m - 010° 010° 6 kt METAR ETWM 010020Z AUTO 01006KT //// // ////// 05/04 Q1027 ///
00:20
U
5 °C 0 m - 010° 010° 6 kt METAR ETWM 302320Z AUTO 01006KT //// // ////// 05/04 Q1027 ///

30 de noviembre de 2022

Hora Código Tiempo Temp. Visibilidad Cielo nuboso Viento METAR/SPECI
23:20
U
5 °C 0 m - 010° 010° 5 kt METAR ETWM 302220Z AUTO 01005KT //// // ////// 05/04 Q1027 ///
22:20
U
5 °C 0 m - 360° 360° 4 kt METAR ETWM 302120Z AUTO 36004KT //// // ////// 05/04 Q1027 ///
21:20
U
5 °C 0 m - 020° 020° 4 kt METAR ETWM 302020Z AUTO 02004KT //// // ////// 05/05 Q1026 ///
20:20
U
5 °C 0 m - 010° 010° 5 kt METAR ETWM 301920Z AUTO 01005KT //// // ////// 05/05 Q1026 ///
19:20
U
5 °C 0 m - 010° 010° 4 kt METAR ETWM 301820Z AUTO 01004KT //// // ////// 05/05 Q1026 ///
18:20
U
5 °C 0 m - 010° 010° 4 kt METAR ETWM 301720Z AUTO 01004KT //// // ////// 05/04 Q1025 ///
17:20
U
5 °C 0 m - 020° 020° 4 kt METAR ETWM 301620Z AUTO 02004KT //// // ////// 05/04 Q1025 ///
16:20
I
5 °C 4,5 km 500 ft 360° 360° 5 kt METAR ETWM 301520Z 36005KT 4500 -DZ BR SCT003 BKN005 05/04 Q1025 YLO
15:20
L
5 °C 6 km 400 ft 030° 030° 5 kt METAR ETWM 301420Z 03005KT 6000 -DZ BKN004 05/05 Q1025 YLO
14:20
I
5 °C 5 km 800 ft 010° 010° 5 kt METAR ETWM 301320Z 01005KT 5000 -RADZ BR FEW003 SCT006 BKN008 05/05 Q1024 GRN
13:20
I
5 °C 5 km 500 ft 010° 010° 5 kt METAR ETWM 301220Z 01005KT 5000 -DZ SCT003 BKN005 05/05 Q1024 YLO
12:20
L
5 °C 6 km 300 ft 010° 010° 4 kt METAR ETWM 301120Z 01004KT 6000 -DZ FEW002 BKN003 BKN007 05/05 Q1024 YLO
11:20
L
5 °C 3,7 km 400 ft 020° 020° 4 kt METAR ETWM 301020Z 02004KT 3700 -DZ BR SCT002 BKN004 05/05 Q1024 YLO
10:49
I
5 °C 5 km 600 ft 010° 010° 4 kt SPECI ETWM 300949Z 01004KT 5000 BR FEW002 SCT004 BKN006 05/05 Q1024 YLO
10:20
L
5 °C 3,9 km 200 ft 010° 010° 5 kt METAR ETWM 300920Z 01005KT 3900 BR FEW001 OVC002 05/05 Q1024 AMB
09:20
L
5 °C 3,3 km 200 ft 360° 360° 4 kt METAR ETWM 300820Z 36004KT 3300 BR FEW001 OVC002 05/05 Q1024 AMB
08:20
L
5 °C 2,7 km 100 ft 010° 010° 4 kt METAR ETWM 300720Z 01004KT 2700 -DZ BR OVC001 05/05 Q1023 RED
07:20
L
5 °C 5 km 400 ft 360° 360° 4 kt METAR ETWM 300620Z 36004KT 5000 BR SCT003 BKN004 05/05 Q1022 YLO
06:20
L
5 °C 4,8 km 300 ft 360° 360° 3 kt METAR ETWM 300520Z 36003KT 4800 BR FEW002 BKN003 05/05 Q1022 YLO
05:20
U
5 °C 0 m - 010° 010° 3 kt METAR ETWM 300420Z AUTO 01003KT //// // ////// 05/05 Q1022 ///
04:20
U
5 °C 0 m - 360° 360° 2 kt METAR ETWM 300320Z AUTO 36002KT //// // ////// 05/05 Q1022 ///
03:20
U
5 °C 0 m - 350° 350° 4 kt METAR ETWM 300220Z AUTO 35004KT //// // ////// 05/05 Q1021 ///
02:20
U
6 °C 0 m - 350° 350° 3 kt METAR ETWM 300120Z AUTO 35003KT //// // ////// 06/05 Q1021 ///
01:20
U
6 °C 0 m - 340° 340° 4 kt METAR ETWM 300020Z AUTO 34004KT //// // ////// 06/05 Q1021 ///
00:20
U
6 °C 0 m - 340° 340° 3 kt METAR ETWM 292320Z AUTO 34003KT //// // ////// 06/06 Q1021 ///

29 de noviembre de 2022

Hora Código Tiempo Temp. Visibilidad Cielo nuboso Viento METAR/SPECI
23:20
U
6 °C 0 m - 340° 340° 3 kt METAR ETWM 292220Z AUTO 34003KT //// // ////// 06/06 Q1021 ///
22:20
U
6 °C 0 m - 320° 320° 2 kt METAR ETWM 292120Z AUTO 32002KT //// // ////// 06/06 Q1021 ///
21:20
U
6 °C 0 m - 320° 320° 3 kt METAR ETWM 292020Z AUTO 32003KT //// // ////// 06/06 Q1020 ///
20:20
U
6 °C 0 m - 340° 340° 5 kt METAR ETWM 291920Z AUTO 34005KT //// // ////// 06/06 Q1020 ///
19:20
U
7 °C 0 m - 340° 340° 3 kt METAR ETWM 291820Z AUTO 34003KT //// // ////// 07/06 Q1020 ///
18:20
U
7 °C 0 m - 350° 350° 5 kt METAR ETWM 291720Z AUTO 35005KT //// // ////// 07/06 Q1019 ///
17:20
U
8 °C 0 m - 320° 320° 3 kt METAR ETWM 291620Z AUTO 32003KT //// // ////// 08/07 Q1019 ///
16:20
U
8 °C 0 m - 300° 300° 2 kt METAR ETWM 291520Z AUTO 30002KT //// // ////// 08/08 Q1018 ///
15:20
U
8 °C 0 m - Var Var 3 kt METAR ETWM 291420Z AUTO VRB03KT //// // ////// 08/08 Q1018 ///
14:20
L
8 °C 3,8 km 200 ft 260° 260° 4 kt METAR ETWM 291320Z 26004KT 3800 BR BKN002 08/08 Q1018 AMB
13:20
L
8 °C 3,6 km 300 ft 260° 260° 3 kt METAR ETWM 291220Z 26003KT 3600 BR SCT002 BKN003 08/08 Q1017 YLO
12:54
L
8 °C 2,4 km 200 ft 240° 240° 5 kt METAR ETWM 291154Z 24005KT 2400 BR BKN002 BKN004 08/08 Q1017 AMB
12:20
L
8 °C 1,8 km 100 ft 250° 250° 5 kt METAR ETWM 291120Z 25005KT 1800 BR BKN001 08/08 Q1017 RED
11:20
L
7 °C 1,1 km 100 ft 250° 250° 5 kt METAR ETWM 291020Z 25005KT 1100 -RADZ BR SCT000 OVC001 07/07 Q1017 RED

Nosotros y terceros seguimos tu comportamiento en Internet en nuestro sitio web con cookies. Si continúas, asumimos que estás de acuerdo con nuestra Política de cookies.